Time;durP1;ratioP1;P1;durP2;ratioP2;P2;SDS_P1;SDS_P2;PMS_P1;PMS_P2;Temp;Humidity;BMP_temperature;BMP_pressure;BME280_temperature;BME280_humidity;BME280_pressure;Samples;Min_cycle;Max_cycle;Signal;HPM_P1;HPM_P2
2024/04/11 00:01:35;;;;;;;7.30;1.83;;;;;;;;;;5509031;26;20013;-58
2024/04/11 00:04:01;;;;;;;8.33;1.90;;;;;;;;;;5509836;26;20223;-57
2024/04/11 00:06:26;;;;;;;10.77;1.77;;;;;;;;;;5509715;26;19998;-55
2024/04/11 00:08:52;;;;;;;8.57;1.60;;;;;;;;;;5509350;26;20050;-58
2024/04/11 00:11:18;;;;;;;10.67;1.93;;;;;;;;;;5509916;26;20040;-59
2024/04/11 00:13:44;;;;;;;5.30;1.63;;;;;;;;;;5510508;26;20006;-57
2024/04/11 00:16:10;;;;;;;;;;;;;;;;;;5510555;26;20009;-59
2024/04/11 00:18:35;;;;;;;8.50;1.60;;;;;;;;;;5509849;26;19924;-57
2024/04/11 00:21:02;;;;;;;8.00;1.70;;;;;;;;;;5510106;26;20013;-57
2024/04/11 00:23:28;;;;;;;9.43;2.10;;;;;;;;;;5510071;26;20227;-57
2024/04/11 00:25:57;;;;;;;7.82;1.90;;;;;;;;;;5508693;26;19998;-56
2024/04/11 00:28:23;;;;;;;4.40;1.70;;;;;;;;;;5509671;26;19998;-57
2024/04/11 00:30:48;;;;;;;11.25;2.22;;;;;;;;;;5509992;26;20259;-57
2024/04/11 00:33:14;;;;;;;7.25;1.60;;;;;;;;;;5504016;26;19994;-55
2024/04/11 00:35:40;;;;;;;17.20;2.10;;;;;;;;;;5506390;26;19994;-58
2024/04/11 00:38:10;;;;;;;10.50;1.63;;;;;;;;;;5507404;26;20047;-58
2024/04/11 00:40:36;;;;;;;8.33;2.50;;;;;;;;;;5510124;26;20301;-58
2024/04/11 00:43:02;;;;;;;4.95;2.00;;;;;;;;;;5509283;26;20250;-55
2024/04/11 00:45:28;;;;;;;7.57;1.63;;;;;;;;;;5509717;26;20014;-60
2024/04/11 00:47:53;;;;;;;8.70;2.10;;;;;;;;;;5509727;26;20001;-60
2024/04/11 00:50:19;;;;;;;6.33;1.70;;;;;;;;;;5509878;26;19990;-57
2024/04/11 00:52:45;;;;;;;9.30;2.05;;;;;;;;;;5509135;26;20010;-55
2024/04/11 00:55:11;;;;;;;10.35;2.35;;;;;;;;;;5510092;26;20005;-59
2024/04/11 00:57:36;;;;;;;7.07;1.55;;;;;;;;;;5509540;26;19994;-59
2024/04/11 01:00:02;;;;;;;7.53;1.90;;;;;;;;;;5509869;26;19998;-58
2024/04/11 01:02:28;;;;;;;8.93;1.70;;;;;;;;;;5509370;26;20018;-59
2024/04/11 01:04:54;;;;;;;7.57;1.70;;;;;;;;;;5509479;26;20009;-59
2024/04/11 01:07:19;;;;;;;9.15;2.42;;;;;;;;;;5502781;26;20044;-58
2024/04/11 01:09:45;;;;;;;7.33;2.00;;;;;;;;;;5508751;26;19993;-58
2024/04/11 01:12:12;;;;;;;;;;;;;;;;;;5509960;26;19999;-59
2024/04/11 01:14:41;;;;;;;11.15;1.67;;;;;;;;;;5509653;26;19928;-56
2024/04/11 01:17:07;;;;;;;12.93;1.90;;;;;;;;;;5505016;26;20002;-58
2024/04/11 01:19:33;;;;;;;7.32;1.98;;;;;;;;;;5509387;26;20219;-59
2024/04/11 01:22:00;;;;;;;9.33;1.97;;;;;;;;;;5509474;26;20022;-59
2024/04/11 01:24:27;;;;;;;9.30;1.80;;;;;;;;;;5509159;26;20259;-55
2024/04/11 01:26:53;;;;;;;8.07;2.40;;;;;;;;;;5509168;26;20227;-58
2024/04/11 01:29:19;;;;;;;9.13;1.42;;;;;;;;;;5509404;26;20266;-56
2024/04/11 01:31:44;;;;;;;9.87;2.70;;;;;;;;;;5508938;26;19994;-57
2024/04/11 01:34:10;;;;;;;5.93;1.88;;;;;;;;;;5509340;26;20010;-57
2024/04/11 01:36:35;;;;;;;6.97;1.60;;;;;;;;;;5505805;26;20009;-58
2024/04/11 01:39:08;;;;;;;5.07;1.90;;;;;;;;;;5501669;26;20002;-55
2024/04/11 01:41:36;;;;;;;12.20;3.13;;;;;;;;;;5508095;26;19998;-58
2024/04/11 01:44:02;;;;;;;7.97;2.00;;;;;;;;;;5509207;26;20278;-55
2024/04/11 01:46:28;;;;;;;11.65;2.22;;;;;;;;;;5508538;26;20223;-60
2024/04/11 01:48:53;;;;;;;6.25;1.70;;;;;;;;;;5508862;26;19994;-58
2024/04/11 01:51:19;;;;;;;11.32;2.10;;;;;;;;;;5507853;26;20009;-59
2024/04/11 01:53:45;;;;;;;11.13;2.13;;;;;;;;;;5509195;26;19998;-59
2024/04/11 01:56:11;;;;;;;14.85;3.53;;;;;;;;;;5508515;26;20005;-58
2024/04/11 01:58:41;;;;;;;8.43;2.03;;;;;;;;;;5507834;26;19994;-58
2024/04/11 02:01:12;;;;;;;11.20;2.17;;;;;;;;;;5499455;26;20325;-56
2024/04/11 02:03:38;;;;;;;12.97;2.13;;;;;;;;;;5495506;26;20223;-58
2024/04/11 02:06:07;;;;;;;9.52;2.17;;;;;;;;;;5508369;26;20291;-58
2024/04/11 02:08:35;;;;;;;7.20;1.63;;;;;;;;;;5508137;26;20031;-56
2024/04/11 02:11:00;;;;;;;11.77;1.83;;;;;;;;;;5508159;26;20227;-59
2024/04/11 02:13:26;;;;;;;5.90;2.20;;;;;;;;;;5508042;26;20264;-59
2024/04/11 02:15:54;;;;;;;11.27;1.92;;;;;;;;;;5507908;26;19995;-59
2024/04/11 02:18:19;;;;;;;7.60;2.17;;;;;;;;;;5507822;26;19998;-60
2024/04/11 02:20:44;;;;;;;6.65;2.13;;;;;;;;;;5509411;26;20264;-57
2024/04/11 02:23:10;;;;;;;11.02;2.35;;;;;;;;;;5512555;26;20006;-56
2024/04/11 02:25:36;;;;;;;12.98;1.75;;;;;;;;;;5511422;26;20004;-58
2024/04/11 02:28:02;;;;;;;14.88;2.33;;;;;;;;;;5499122;26;19998;-54
2024/04/11 02:30:28;;;;;;;13.13;2.03;;;;;;;;;;5511974;26;20005;-58
2024/04/11 02:32:53;;;;;;;5.50;1.83;;;;;;;;;;5512283;26;20227;-60
2024/04/11 02:35:19;;;;;;;6.63;1.92;;;;;;;;;;5512025;26;20009;-59
2024/04/11 02:37:44;;;;;;;14.70;2.00;;;;;;;;;;5511351;26;20026;-56
2024/04/11 02:40:10;;;;;;;13.00;1.92;;;;;;;;;;5512087;26;19998;-58
2024/04/11 02:42:39;;;;;;;11.73;1.98;;;;;;;;;;5511732;26;20281;-58
2024/04/11 02:45:07;;;;;;;10.73;2.00;;;;;;;;;;5511825;26;20002;-57
2024/04/11 02:47:34;;;;;;;7.10;2.30;;;;;;;;;;5511317;26;20264;-58
2024/04/11 02:49:59;;;;;;;;;;;;;;;;;;5511850;26;20306;-57
2024/04/11 02:52:25;;;;;;;7.33;1.73;;;;;;;;;;5511451;26;19936;-58
2024/04/11 02:54:50;;;;;;;8.45;2.17;;;;;;;;;;5512316;26;20013;-58
2024/04/11 02:57:16;;;;;;;11.25;2.03;;;;;;;;;;5511259;26;19998;-58
2024/04/11 02:59:41;;;;;;;8.65;2.17;;;;;;;;;;5510900;26;20026;-59
2024/04/11 03:02:08;;;;;;;7.13;2.33;;;;;;;;;;5511060;26;19998;-59
2024/04/11 03:04:34;;;;;;;13.03;2.10;;;;;;;;;;5511339;26;20047;-59
2024/04/11 03:07:00;;;;;;;10.32;1.90;;;;;;;;;;5511402;26;20237;-58
2024/04/11 03:09:26;;;;;;;8.82;2.00;;;;;;;;;;5510177;26;20047;-57
2024/04/11 03:11:51;;;;;;;6.72;1.90;;;;;;;;;;5511524;26;19999;-55
2024/04/11 03:14:16;;;;;;;13.17;1.90;;;;;;;;;;5511353;26;19994;-60
2024/04/11 03:16:41;;;;;;;11.50;1.70;;;;;;;;;;5510562;26;20008;-58
2024/04/11 03:19:07;;;;;;;9.77;1.90;;;;;;;;;;5510652;26;19998;-59
2024/04/11 03:21:32;;;;;;;11.70;1.98;;;;;;;;;;5510865;26;19998;-57
2024/04/11 03:23:58;;;;;;;10.70;2.17;;;;;;;;;;5511159;26;20047;-58
2024/04/11 03:26:23;;;;;;;18.75;3.65;;;;;;;;;;5509675;26;20039;-57
2024/04/11 03:28:49;;;;;;;10.60;2.37;;;;;;;;;;5502764;26;19994;-59
2024/04/11 03:31:17;;;;;;;9.25;2.13;;;;;;;;;;5510077;26;20009;-60
2024/04/11 03:33:42;;;;;;;6.30;1.73;;;;;;;;;;5492227;26;20214;-58
2024/04/11 03:36:12;;;;;;;4.68;1.85;;;;;;;;;;5510166;26;20286;-58
2024/04/11 03:38:39;;;;;;;6.63;2.00;;;;;;;;;;5510785;26;20013;-56
2024/04/11 03:41:04;;;;;;;8.63;2.03;;;;;;;;;;5511042;26;20227;-57
2024/04/11 03:43:38;;;;;;;5.75;1.92;;;;;;;;;;5510796;26;20005;-55
2024/04/11 03:46:05;;;;;;;5.90;1.83;;;;;;;;;;5494797;26;19999;-57
2024/04/11 03:48:31;;;;;;;5.55;2.08;;;;;;;;;;5497537;26;20257;-56
2024/04/11 03:50:56;;;;;;;7.13;2.42;;;;;;;;;;5510369;26;19994;-57
2024/04/11 03:53:22;;;;;;;7.88;2.25;;;;;;;;;;5511081;26;19994;-56
2024/04/11 03:55:47;;;;;;;14.98;2.38;;;;;;;;;;5510641;26;19994;-54
2024/04/11 03:58:16;;;;;;;8.77;2.20;;;;;;;;;;5510371;26;20026;-56
2024/04/11 04:00:45;;;;;;;5.53;1.83;;;;;;;;;;5493769;26;19998;-58
2024/04/11 04:03:11;;;;;;;8.50;2.60;;;;;;;;;;5510720;26;20275;-58
2024/04/11 04:05:37;;;;;;;13.68;3.95;;;;;;;;;;5510205;26;20219;-59
2024/04/11 04:08:04;;;;;;;7.28;2.22;;;;;;;;;;5510809;26;19998;-58
2024/04/11 04:10:31;;;;;;;8.53;2.33;;;;;;;;;;5509736;26;19998;-59
2024/04/11 04:12:57;;;;;;;;;;;;;;;;;;5509390;26;20231;-58
2024/04/11 04:15:23;;;;;;;9.40;1.77;;;;;;;;;;5509200;26;20541;-58
2024/04/11 04:17:51;;;;;;;11.98;2.10;;;;;;;;;;5506989;26;20005;-57
2024/04/11 04:20:16;;;;;;;7.33;2.40;;;;;;;;;;5509647;26;20066;-58
2024/04/11 04:22:42;;;;;;;10.68;2.00;;;;;;;;;;5509485;26;20458;-59
2024/04/11 04:25:11;;;;;;;7.85;1.90;;;;;;;;;;5509428;26;20006;-55
2024/04/11 04:27:38;;;;;;;10.77;2.03;;;;;;;;;;5510047;26;19998;-59
2024/04/11 04:30:09;;;;;;;11.13;2.30;;;;;;;;;;5509707;26;20267;-59
2024/04/11 04:32:37;;;;;;;10.23;2.07;;;;;;;;;;5493704;26;20033;-58
2024/04/11 04:35:06;;;;;;;11.60;2.13;;;;;;;;;;5508031;26;20227;-58
2024/04/11 04:37:31;;;;;;;9.83;2.67;;;;;;;;;;5509906;26;20223;-58
2024/04/11 04:39:59;;;;;;;4.68;1.70;;;;;;;;;;5509609;26;20275;-59
2024/04/11 04:42:24;;;;;;;6.13;1.57;;;;;;;;;;5507814;26;20017;-55
2024/04/11 04:44:50;;;;;;;12.93;2.67;;;;;;;;;;5509252;26;20231;-56
2024/04/11 04:47:16;;;;;;;10.43;1.52;;;;;;;;;;5509635;26;20004;-57
2024/04/11 04:49:44;;;;;;;8.10;1.80;;;;;;;;;;5509696;26;20002;-57
2024/04/11 04:52:10;;;;;;;8.87;2.43;;;;;;;;;;5510408;26;20013;-59
2024/04/11 04:54:35;;;;;;;8.63;2.00;;;;;;;;;;5509360;26;20231;-58
2024/04/11 04:57:00;;;;;;;11.77;2.17;;;;;;;;;;5509893;26;19994;-57
2024/04/11 04:59:26;;;;;;;13.53;1.80;;;;;;;;;;5504006;26;20310;-58
2024/04/11 05:01:53;;;;;;;11.43;2.63;;;;;;;;;;5510170;26;20220;-56
2024/04/11 05:04:20;;;;;;;9.37;2.03;;;;;;;;;;5508859;26;19994;-57
2024/04/11 05:06:49;;;;;;;10.07;2.20;;;;;;;;;;5509533;26;20223;-58
2024/04/11 05:09:15;;;;;;;10.93;1.97;;;;;;;;;;5509020;26;20283;-57
2024/04/11 05:11:44;;;;;;;8.13;1.70;;;;;;;;;;5509552;26;20239;-57
2024/04/11 05:14:09;;;;;;;15.57;2.20;;;;;;;;;;5509253;26;19998;-58
2024/04/11 05:16:35;;;;;;;8.10;2.15;;;;;;;;;;5508815;26;20231;-57
2024/04/11 05:19:00;;;;;;;11.30;2.33;;;;;;;;;;5504476;26;20006;-59
2024/04/11 05:21:26;;;;;;;11.07;2.30;;;;;;;;;;5509295;26;20010;-57
2024/04/11 05:23:55;;;;;;;10.05;2.10;;;;;;;;;;5509563;26;19998;-58
2024/04/11 05:26:23;;;;;;;8.30;1.70;;;;;;;;;;5484582;26;20005;-57
2024/04/11 05:28:51;;;;;;;8.93;1.93;;;;;;;;;;5504334;26;20284;-57
2024/04/11 05:31:17;;;;;;;6.20;1.53;;;;;;;;;;5508159;26;20292;-60
2024/04/11 05:33:44;;;;;;;6.45;1.70;;;;;;;;;;5509535;26;20223;-58
2024/04/11 05:36:12;;;;;;;13.43;2.20;;;;;;;;;;5509519;26;20002;-60
2024/04/11 05:38:38;;;;;;;8.63;1.70;;;;;;;;;;5508161;26;20006;-59
2024/04/11 05:41:04;;;;;;;11.23;1.88;;;;;;;;;;5499325;26;20228;-59
2024/04/11 05:43:30;;;;;;;8.10;2.20;;;;;;;;;;5495109;26;20002;-60
2024/04/11 05:45:57;;;;;;;6.28;2.10;;;;;;;;;;5509125;26;20002;-59
2024/04/11 05:48:24;;;;;;;8.50;2.17;;;;;;;;;;5508931;26;20009;-57
2024/04/11 05:50:51;;;;;;;7.83;1.70;;;;;;;;;;5507724;26;20227;-59
2024/04/11 05:53:16;;;;;;;7.30;1.83;;;;;;;;;;5508928;26;20239;-59
2024/04/11 05:55:41;;;;;;;9.75;1.80;;;;;;;;;;5510730;26;20012;-59
2024/04/11 05:58:07;;;;;;;9.15;2.28;;;;;;;;;;5512278;26;19998;-56
2024/04/11 06:00:32;;;;;;;7.75;1.98;;;;;;;;;;5510884;26;20013;-60
2024/04/11 06:03:08;;;;;;;11.85;1.55;;;;;;;;;;5512719;26;20009;-58
2024/04/11 06:05:38;;;;;;;7.93;2.07;;;;;;;;;;5512264;26;20006;-59
2024/04/11 06:08:07;;;;;;;9.37;2.30;;;;;;;;;;5512378;26;20271;-58
2024/04/11 06:10:34;;;;;;;8.23;2.13;;;;;;;;;;5506109;26;20267;-58
2024/04/11 06:13:01;;;;;;;14.77;2.47;;;;;;;;;;5512634;26;20276;-58
2024/04/11 06:15:26;;;;;;;9.50;1.80;;;;;;;;;;5510919;26;20027;-57
2024/04/11 06:17:52;;;;;;;12.10;2.05;;;;;;;;;;5511996;26;20231;-58
2024/04/11 06:20:21;;;;;;;11.57;2.03;;;;;;;;;;5511702;26;19994;-58
2024/04/11 06:22:52;;;;;;;9.03;2.47;;;;;;;;;;5512299;26;20009;-59
2024/04/11 06:25:18;;;;;;;9.63;2.90;;;;;;;;;;5511810;26;20219;-59
2024/04/11 06:27:44;;;;;;;12.43;2.17;;;;;;;;;;5512071;26;20282;-58
2024/04/11 06:30:14;;;;;;;15.10;2.53;;;;;;;;;;5510875;26;19998;-58
2024/04/11 06:32:40;;;;;;;15.40;2.70;;;;;;;;;;5512008;26;19998;-58
2024/04/11 06:35:08;;;;;;;10.30;2.38;;;;;;;;;;5511640;26;20274;-58
2024/04/11 06:37:34;;;;;;;11.17;2.23;;;;;;;;;;5512347;26;20009;-55
2024/04/11 06:40:11;;;;;;;7.65;2.10;;;;;;;;;;5510761;26;20235;-58
2024/04/11 06:42:40;;;;;;;;;;;;;;;;;;5512221;26;19998;-57
2024/04/11 06:45:08;;;;;;;12.70;2.70;;;;;;;;;;5511960;26;19932;-56
2024/04/11 06:47:34;;;;;;;9.87;3.10;;;;;;;;;;5511568;26;20280;-58
2024/04/11 06:49:59;;;;;;;22.53;4.07;;;;;;;;;;5511376;26;20253;-60
2024/04/11 06:52:25;;;;;;;11.65;3.15;;;;;;;;;;5511561;26;20231;-60
2024/04/11 06:54:50;;;;;;;7.03;2.10;;;;;;;;;;5511818;26;20006;-60
2024/04/11 06:57:21;;;;;;;11.85;2.80;;;;;;;;;;5510278;26;20039;-61
2024/04/11 06:59:49;;;;;;;14.73;2.90;;;;;;;;;;5511377;26;20043;-59
2024/04/11 07:02:16;;;;;;;7.17;2.90;;;;;;;;;;5511747;26;20264;-61
2024/04/11 07:04:44;;;;;;;10.55;3.08;;;;;;;;;;5511496;26;20267;-58
2024/04/11 07:07:10;;;;;;;15.00;3.40;;;;;;;;;;5510513;26;19994;-60
2024/04/11 07:09:39;;;;;;;13.70;3.90;;;;;;;;;;5511046;26;20286;-60
2024/04/11 07:12:10;;;;;;;14.90;3.83;;;;;;;;;;5511138;26;20231;-60
2024/04/11 07:14:40;;;;;;;18.17;3.50;;;;;;;;;;5511336;26;20283;-61
2024/04/11 07:17:11;;;;;;;23.27;4.00;;;;;;;;;;5510833;26;20243;-60
2024/04/11 07:19:42;;;;;;;17.30;3.73;;;;;;;;;;5511127;26;20236;-60
2024/04/11 07:22:09;;;;;;;15.27;3.87;;;;;;;;;;5510823;26;20235;-60
2024/04/11 07:24:38;;;;;;;12.15;3.60;;;;;;;;;;5511157;26;20223;-60
2024/04/11 07:27:11;;;;;;;21.63;4.57;;;;;;;;;;5510900;26;19998;-60
2024/04/11 07:29:38;;;;;;;11.30;4.20;;;;;;;;;;5510799;26;20326;-61
2024/04/11 07:32:05;;;;;;;18.10;4.73;;;;;;;;;;5505175;26;20263;-59
2024/04/11 07:34:31;;;;;;;16.27;4.63;;;;;;;;;;5510916;26;20227;-59
2024/04/11 07:36:56;;;;;;;12.68;4.50;;;;;;;;;;5511186;26;20263;-59
2024/04/11 07:39:22;;;;;;;12.32;4.28;;;;;;;;;;5510868;26;19998;-59
2024/04/11 07:42:00;;;;;;;9.70;3.88;;;;;;;;;;5510570;26;19997;-59
2024/04/11 07:44:25;;;;;;;16.03;4.80;;;;;;;;;;5510122;26;20004;-61
2024/04/11 07:46:53;;;;;;;17.05;5.13;;;;;;;;;;5510722;26;20231;-59
2024/04/11 07:49:19;;;;;;;16.77;5.63;;;;;;;;;;5511032;26;20030;-60
2024/04/11 07:51:45;;;;;;;22.27;5.53;;;;;;;;;;5510154;26;20223;-60
2024/04/11 07:54:13;;;;;;;21.48;5.13;;;;;;;;;;5511061;26;20005;-60
2024/04/11 07:56:39;;;;;;;21.87;4.80;;;;;;;;;;5510999;26;20002;-59
2024/04/11 07:59:06;;;;;;;11.53;5.10;;;;;;;;;;5486283;26;20272;-58
2024/04/11 08:01:34;;;;;;;14.73;5.15;;;;;;;;;;5510383;26;20305;-59
2024/04/11 08:04:01;;;;;;;13.10;4.70;;;;;;;;;;5510160;26;20002;-64
2024/04/11 08:06:30;;;;;;;22.98;5.68;;;;;;;;;;5510584;26;20280;-64
2024/04/11 08:08:56;;;;;;;12.23;5.70;;;;;;;;;;5510554;26;20071;-65
2024/04/11 08:11:23;;;;;;;;;;;;;;;;;;5510203;26;20275;-65
2024/04/11 08:13:49;;;;;;;18.47;6.03;;;;;;;;;;5511281;26;19931;-63
2024/04/11 08:16:15;;;;;;;13.27;5.80;;;;;;;;;;5508621;26;20223;-64
2024/04/11 08:18:40;;;;;;;13.85;5.35;;;;;;;;;;5510002;26;19998;-64
2024/04/11 08:21:11;;;;;;;;;;;;;;;;;;5509368;26;20050;-64
2024/04/11 08:23:37;;;;;;;20.37;5.90;;;;;;;;;;5489089;26;19924;-63
2024/04/11 08:26:03;;;;;;;17.98;6.65;;;;;;;;;;5508213;26;20224;-64
2024/04/11 08:28:29;;;;;;;17.33;6.35;;;;;;;;;;5510682;26;20002;-64
2024/04/11 08:30:55;;;;;;;16.43;6.63;;;;;;;;;;5509982;26;20009;-63
2024/04/11 08:33:20;;;;;;;;;;;;;;;;;;5511492;26;20010;-64
2024/04/11 08:35:52;;;;;;;18.60;6.90;;;;;;;;;;5510029;26;19969;-63
2024/04/11 08:38:22;;;;;;;20.97;7.43;;;;;;;;;;5510345;26;19994;-61
2024/04/11 08:40:49;;;;;;;15.90;6.83;;;;;;;;;;5508425;26;20231;-62
2024/04/11 08:43:19;;;;;;;21.63;8.80;;;;;;;;;;5510376;26;20227;-63
2024/04/11 08:45:45;;;;;;;16.20;7.53;;;;;;;;;;5496499;26;20401;-59
2024/04/11 08:48:11;;;;;;;20.15;8.00;;;;;;;;;;5509568;26;20286;-59
2024/04/11 08:50:44;;;;;;;18.42;7.90;;;;;;;;;;5509386;26;20002;-60
2024/04/11 08:53:10;;;;;;;12.63;7.73;;;;;;;;;;5509882;26;19998;-60
2024/04/11 08:55:36;;;;;;;16.98;7.80;;;;;;;;;;5509504;26;20231;-60
2024/04/11 08:58:02;;;;;;;17.25;8.48;;;;;;;;;;5509830;26;19998;-59
2024/04/11 09:00:28;;;;;;;19.50;8.57;;;;;;;;;;5508493;26;20002;-59
2024/04/11 09:02:55;;;;;;;21.65;9.70;;;;;;;;;;5509103;26;19997;-60
2024/04/11 09:05:22;;;;;;;20.07;9.97;;;;;;;;;;5509400;26;20056;-57
2024/04/11 09:07:48;;;;;;;21.73;9.53;;;;;;;;;;5509468;26;20231;-58
2024/04/11 09:10:16;;;;;;;16.30;10.27;;;;;;;;;;5509590;26;20275;-59
2024/04/11 09:12:46;;;;;;;19.80;10.83;;;;;;;;;;5509014;26;20002;-58
2024/04/11 09:15:15;;;;;;;18.47;10.90;;;;;;;;;;5507057;26;20560;-57
2024/04/11 09:17:45;;;;;;;24.53;11.63;;;;;;;;;;5488070;26;20227;-59
2024/04/11 09:20:15;;;;;;;19.80;10.83;;;;;;;;;;5506274;26;20265;-58
2024/04/11 09:22:48;;;;;;;21.27;11.37;;;;;;;;;;5508987;26;20227;-58
2024/04/11 09:25:13;;;;;;;20.97;11.27;;;;;;;;;;5509178;26;20215;-54
2024/04/11 09:27:42;;;;;;;23.75;11.43;;;;;;;;;;5509289;26;20252;-59
2024/04/11 09:30:08;;;;;;;25.17;11.07;;;;;;;;;;5500187;26;19995;-58
2024/04/11 09:32:36;;;;;;;24.95;11.57;;;;;;;;;;5494441;26;20223;-58
2024/04/11 09:35:05;;;;;;;25.20;12.17;;;;;;;;;;5509202;26;19998;-58
2024/04/11 09:37:35;;;;;;;19.60;11.07;;;;;;;;;;5509027;26;20255;-57
2024/04/11 09:40:11;;;;;;;22.80;11.93;;;;;;;;;;5508542;26;20216;-57
2024/04/11 09:42:39;;;;;;;31.17;12.93;;;;;;;;;;5508226;26;20335;-58
2024/04/11 09:45:10;;;;;;;20.57;11.73;;;;;;;;;;5485190;26;20306;-59
2024/04/11 09:47:38;;;;;;;21.80;11.73;;;;;;;;;;5507921;26;20731;-58
2024/04/11 09:50:04;;;;;;;24.37;12.83;;;;;;;;;;5508581;26;20220;-57
2024/04/11 09:52:34;;;;;;;23.83;11.20;;;;;;;;;;5507892;26;20228;-56
2024/04/11 09:55:03;;;;;;;23.53;12.03;;;;;;;;;;5508433;26;20006;-57
2024/04/11 09:57:31;;;;;;;22.67;12.13;;;;;;;;;;5507814;26;20215;-57
2024/04/11 09:59:57;;;;;;;22.27;10.93;;;;;;;;;;5508042;26;20219;-59
2024/04/11 10:02:25;;;;;;;26.00;13.20;;;;;;;;;;5507619;26;20219;-58
2024/04/11 10:04:57;;;;;;;28.67;13.50;;;;;;;;;;5508195;26;19994;-58
2024/04/11 10:07:25;;;;;;;25.23;13.10;;;;;;;;;;5507196;26;20227;-57
2024/04/11 10:09:52;;;;;;;48.07;14.97;;;;;;;;;;5508267;26;20293;-55
2024/04/11 10:12:28;;;;;;;26.47;14.63;;;;;;;;;;5507427;26;20223;-57
2024/04/11 10:14:57;;;;;;;29.33;14.47;;;;;;;;;;5507973;26;20277;-59
2024/04/11 10:17:28;;;;;;;27.37;14.30;;;;;;;;;;5507031;26;20223;-59
2024/04/11 10:19:59;;;;;;;26.40;13.63;;;;;;;;;;5507618;26;20348;-58
2024/04/11 10:22:25;;;;;;;32.63;14.90;;;;;;;;;;5505899;26;20223;-58
2024/04/11 10:25:01;;;;;;;30.30;14.38;;;;;;;;;;5507942;26;20219;-54
2024/04/11 10:27:29;;;;;;;26.88;13.88;;;;;;;;;;5496164;26;20013;-59
2024/04/11 10:29:56;;;;;;;25.63;14.20;;;;;;;;;;5485215;26;20006;-57
2024/04/11 10:32:26;;;;;;;35.17;15.63;;;;;;;;;;5507816;26;20219;-56
2024/04/11 10:34:58;;;;;;;21.13;14.30;;;;;;;;;;5508250;26;20227;-59
2024/04/11 10:37:25;;;;;;;23.10;13.47;;;;;;;;;;5507776;26;20251;-59
2024/04/11 10:39:54;;;;;;;20.97;12.43;;;;;;;;;;5507936;26;20239;-59
2024/04/11 10:42:27;;;;;;;23.23;14.30;;;;;;;;;;5500833;26;20227;-58
2024/04/11 10:44:53;;;;;;;23.30;12.83;;;;;;;;;;5495718;26;20231;-59
2024/04/11 10:47:18;;;;;;;23.55;13.15;;;;;;;;;;5510972;26;20306;-58
2024/04/11 10:49:45;;;;;;;24.07;12.50;;;;;;;;;;5511578;26;20006;-57
2024/04/11 10:52:11;;;;;;;21.20;12.80;;;;;;;;;;5510160;26;20073;-58
2024/04/11 10:54:39;;;;;;;23.50;12.82;;;;;;;;;;5511195;26;20268;-59
2024/04/11 10:57:12;;;;;;;24.03;13.23;;;;;;;;;;5511536;26;20010;-57
2024/04/11 10:59:38;;;;;;;24.90;12.93;;;;;;;;;;5487614;26;20239;-56
2024/04/11 11:02:10;;;;;;;17.70;11.98;;;;;;;;;;5488462;26;20298;-56
2024/04/11 11:04:43;;;;;;;18.97;11.50;;;;;;;;;;5488467;26;20024;-57
2024/04/11 11:07:10;;;;;;;18.83;12.47;;;;;;;;;;5510405;26;20268;-58
2024/04/11 11:09:37;;;;;;;16.60;11.68;;;;;;;;;;5511312;26;20223;-57
2024/04/11 11:12:03;;;;;;;18.50;10.97;;;;;;;;;;5510165;26;20016;-56
2024/04/11 11:14:29;;;;;;;16.13;9.57;;;;;;;;;;5511148;26;20267;-57
2024/04/11 11:17:01;;;;;;;14.90;10.30;;;;;;;;;;5511225;26;19990;-58
2024/04/11 11:19:32;;;;;;;17.27;10.60;;;;;;;;;;5511004;26;20006;-58
2024/04/11 11:22:01;;;;;;;14.30;10.50;;;;;;;;;;5510498;26;20268;-57
2024/04/11 11:24:29;;;;;;;17.30;10.57;;;;;;;;;;5510344;26;20227;-57
2024/04/11 11:26:58;;;;;;;17.27;9.80;;;;;;;;;;5510496;26;19994;-55
2024/04/11 11:29:28;;;;;;;21.03;12.17;;;;;;;;;;5510894;26;20267;-56
2024/04/11 11:32:01;;;;;;;15.67;10.77;;;;;;;;;;5510153;26;20317;-58
2024/04/11 11:34:27;;;;;;;20.37;11.10;;;;;;;;;;5509714;26;20239;-58
2024/04/11 11:36:57;;;;;;;16.13;10.10;;;;;;;;;;5510937;26;20235;-56
2024/04/11 11:39:26;;;;;;;20.30;10.83;;;;;;;;;;5510582;26;19998;-55
2024/04/11 11:42:08;;;;;;;17.60;10.77;;;;;;;;;;5505137;26;20275;-58
2024/04/11 11:44:41;;;;;;;18.40;10.20;;;;;;;;;;5510053;26;20362;-57
2024/04/11 11:47:07;;;;;;;16.83;9.53;;;;;;;;;;5510081;26;20006;-56
2024/04/11 11:49:35;;;;;;;15.02;8.35;;;;;;;;;;5510232;26;20013;-57
2024/04/11 11:52:05;;;;;;;13.00;8.63;;;;;;;;;;5509592;26;20006;-57
2024/04/11 11:54:34;;;;;;;15.90;8.93;;;;;;;;;;5509291;26;19998;-57
2024/04/11 11:57:09;;;;;;;14.40;7.77;;;;;;;;;;5509297;26;20008;-60
2024/04/11 11:59:39;;;;;;;11.47;7.47;;;;;;;;;;5510260;26;20231;-58
2024/04/11 12:02:04;;;;;;;13.27;7.63;;;;;;;;;;5510084;26;20231;-57
2024/04/11 12:04:30;;;;;;;13.13;8.20;;;;;;;;;;5509762;26;20268;-58
2024/04/11 12:06:59;;;;;;;16.17;8.60;;;;;;;;;;5510265;26;20010;-56
2024/04/11 12:09:31;;;;;;;15.90;9.57;;;;;;;;;;5487337;26;20051;-55
2024/04/11 12:12:20;;;;;;;14.33;8.13;;;;;;;;;;5510286;26;19998;-58
2024/04/11 12:14:55;;;;;;;10.77;7.10;;;;;;;;;;5510044;26;20008;-56
2024/04/11 12:17:24;;;;;;;15.57;7.50;;;;;;;;;;5509626;26;19998;-59
2024/04/11 12:19:52;;;;;;;13.37;7.43;;;;;;;;;;5508558;26;20223;-57
2024/04/11 12:22:18;;;;;;;11.00;6.90;;;;;;;;;;5499968;26;20067;-59
2024/04/11 12:24:45;;;;;;;9.50;6.37;;;;;;;;;;5509376;26;20006;-54
2024/04/11 12:27:13;;;;;;;10.23;6.90;;;;;;;;;;5509820;26;20228;-57
2024/04/11 12:29:45;;;;;;;12.73;6.70;;;;;;;;;;5509849;26;20263;-57
2024/04/11 12:32:12;;;;;;;10.10;6.47;;;;;;;;;;5496246;26;20039;-56
2024/04/11 12:34:42;;;;;;;12.20;7.90;;;;;;;;;;5509486;26;20235;-57
2024/04/11 12:37:11;;;;;;;12.43;7.70;;;;;;;;;;5510057;26;20004;-57
2024/04/11 12:39:56;;;;;;;14.67;8.47;;;;;;;;;;5508393;26;20248;-57
2024/04/11 12:42:29;;;;;;;13.57;8.00;;;;;;;;;;5509753;26;19998;-54
2024/04/11 12:44:55;;;;;;;13.03;7.70;;;;;;;;;;5508106;26;20004;-57
2024/04/11 12:47:38;;;;;;;;;;;;;;;;;;5510324;26;20028;-54
2024/04/11 12:50:12;;;;;;;11.93;7.27;;;;;;;;;;5488968;26;19927;-56
2024/04/11 12:52:40;;;;;;;16.30;8.23;;;;;;;;;;5508517;26;20013;-57
2024/04/11 12:55:06;;;;;;;18.50;7.67;;;;;;;;;;5508410;26;19998;-56
2024/04/11 12:57:37;;;;;;;;;;;;;;;;;;5509862;26;20044;-56
2024/04/11 13:00:32;;;;;;;24.33;9.67;;;;;;;;;;5509746;26;19932;-57
2024/04/11 13:03:06;;;;;;;22.13;9.77;;;;;;;;;;5509254;26;19998;-58
2024/04/11 13:05:51;;;;;;;20.53;9.50;;;;;;;;;;5506808;26;19998;-53
2024/04/11 13:08:20;;;;;;;18.10;9.07;;;;;;;;;;5509542;26;20003;-56
2024/04/11 13:10:49;;;;;;;29.07;11.93;;;;;;;;;;5509078;26;20032;-56
2024/04/11 13:13:16;;;;;;;33.40;15.27;;;;;;;;;;5509217;26;20013;-55
2024/04/11 13:15:44;;;;;;;28.33;12.97;;;;;;;;;;5508316;26;20012;-58
2024/04/11 13:18:13;;;;;;;21.40;10.30;;;;;;;;;;5509064;26;20051;-58
2024/04/11 13:20:39;;;;;;;26.53;11.70;;;;;;;;;;5508399;26;19998;-57
2024/04/11 13:23:11;;;;;;;27.20;12.10;;;;;;;;;;5509355;26;20017;-57
2024/04/11 13:25:42;;;;;;;30.17;13.47;;;;;;;;;;5501781;26;20002;-56
2024/04/11 13:28:12;;;;;;;30.10;13.67;;;;;;;;;;5508886;26;20051;-58
2024/04/11 13:30:38;;;;;;;35.83;15.47;;;;;;;;;;5508582;26;19998;-56
2024/04/11 13:33:03;;;;;;;38.28;17.25;;;;;;;;;;5508906;26;19998;-57
2024/04/11 13:35:37;;;;;;;47.75;18.83;;;;;;;;;;5508506;26;20009;-57
2024/04/11 13:38:13;;;;;;;43.47;17.17;;;;;;;;;;5508607;26;20013;-57
2024/04/11 13:43:09;;;;;;;36.33;16.40;;;;;;;;;;5508331;26;20009;-59
2024/04/11 13:45:40;;;;;;;;;;;;;;;;;;5508848;26;20003;-57
2024/04/11 13:48:10;;;;;;;27.27;13.57;;;;;;;;;;5507929;26;19928;-55
2024/04/11 13:50:43;;;;;;;37.33;16.50;;;;;;;;;;5508387;26;19998;-54
2024/04/11 13:53:09;;;;;;;36.30;15.67;;;;;;;;;;5508557;26;20051;-57
2024/04/11 13:55:41;;;;;;;29.27;13.18;;;;;;;;;;5508084;26;20027;-58
2024/04/11 13:58:08;;;;;;;27.47;13.70;;;;;;;;;;5486094;26;20060;-56
2024/04/11 14:00:36;;;;;;;30.15;15.15;;;;;;;;;;5508034;26;20052;-58
2024/04/11 14:03:22;;;;;;;29.13;14.63;;;;;;;;;;5508529;26;20003;-58
2024/04/11 14:05:59;;;;;;;36.97;15.60;;;;;;;;;;5507767;26;20009;-57
2024/04/11 14:08:30;;;;;;;28.37;14.30;;;;;;;;;;5507907;26;20012;-58
2024/04/11 14:10:57;;;;;;;32.30;14.43;;;;;;;;;;5507895;26;20013;-59
2024/04/11 14:13:23;;;;;;;;;;;;;;;;;;5502117;26;19995;-58
2024/04/11 14:15:52;;;;;;;36.10;16.00;;;;;;;;;;5508272;26;19923;-59
2024/04/11 14:18:23;;;;;;;31.80;14.20;;;;;;;;;;5511535;26;19994;-59
2024/04/11 14:20:57;;;;;;;33.30;16.00;;;;;;;;;;5490462;26;19990;-58
2024/04/11 14:26:06;;;;;;;32.40;14.40;;;;;;;;;;5511739;26;20028;-58
2024/04/11 14:28:35;;;;;;;33.42;15.23;;;;;;;;;;5511085;26;20018;-56
2024/04/11 14:31:08;;;;;;;34.00;15.83;;;;;;;;;;5511873;26;20002;-59
2024/04/11 14:36:28;;;;;;;35.97;14.70;;;;;;;;;;5511155;26;19998;-56
2024/04/11 14:39:05;;;;;;;33.40;14.10;;;;;;;;;;5511932;26;20009;-57
2024/04/11 14:41:31;;;;;;;31.40;13.87;;;;;;;;;;5511457;26;20014;-57
2024/04/11 14:43:59;;;;;;;;;;;;;;;;;;5511692;26;20009;-58
2024/04/11 14:46:25;;;;;;;25.27;12.60;;;;;;;;;;5510779;26;19924;-57